ITY53 LEMH-LIML
Flight info
| Callsign | ITY53 |
|---|---|
| Flight time | 1h 17m |
| Altitude | 34000 |
| Route | ISTER UN851 LUNOR DCT NIVDA DCT OMEDA DCT RAPUR DCT TORTU DCT ERTEV DCT OLETI DCT UNITA DCT OTMUV |
| Aircraft | A319/M-SDE3FGHIRWY/LB1 |
Departure
| Time | 2026-04-28 21:07 |
|---|---|
| Airport | Menorca Airport (LEMH) |
Arrival
| Time | 2026-04-28 22:24 |
|---|---|
| Airport | Milano Linate Airport (LIML) |
| Time | Latitude | Longitude | Altitude | Speed | Heading |
|---|---|---|---|---|---|
| 2026-04-28 20:36 | 39.86714 | 4.22463 | 286 ft | 0 kts | 99° |
| 2026-04-28 20:57 | 39.86716 | 4.22448 | 286 ft | 2 kts | 98° |
| 2026-04-28 20:57 | 39.86718 | 4.22429 | 286 ft | 2 kts | 99° |
| 2026-04-28 20:58 | 39.86720 | 4.22410 | 286 ft | 2 kts | 99° |
| 2026-04-28 20:58 | 39.86724 | 4.22390 | 286 ft | 2 kts | 123° |
| 2026-04-28 20:58 | 39.86735 | 4.22377 | 287 ft | 2 kts | 157° |
| 2026-04-28 20:58 | 39.86747 | 4.22374 | 287 ft | 0 kts | 185° |
| 2026-04-28 20:59 | 39.86753 | 4.22376 | 288 ft | 1 kts | 190° |
| 2026-04-28 20:59 | 39.86754 | 4.22376 | 288 ft | 0 kts | 189° |
| 2026-04-28 21:01 | 39.86723 | 4.22371 | 286 ft | 12 kts | 188° |
| 2026-04-28 21:01 | 39.86634 | 4.22352 | 280 ft | 13 kts | 191° |
| 2026-04-28 21:02 | 39.86528 | 4.22341 | 274 ft | 16 kts | 194° |
| 2026-04-28 21:02 | 39.86421 | 4.22308 | 268 ft | 15 kts | 192° |
| 2026-04-28 21:02 | 39.86324 | 4.22290 | 268 ft | 12 kts | 187° |
| 2026-04-28 21:02 | 39.86257 | 4.22274 | 274 ft | 6 kts | 192° |
| 2026-04-28 21:03 | 39.86227 | 4.22267 | 277 ft | 5 kts | 191° |
| 2026-04-28 21:03 | 39.86188 | 4.22218 | 281 ft | 11 kts | 260° |
| 2026-04-28 21:03 | 39.86181 | 4.22117 | 286 ft | 9 kts | 245° |
| 2026-04-28 21:03 | 39.86132 | 4.22078 | 288 ft | 8 kts | 189° |
| 2026-04-28 21:04 | 39.86069 | 4.22065 | 290 ft | 10 kts | 188° |
| 2026-04-28 21:04 | 39.85986 | 4.22048 | 292 ft | 13 kts | 188° |
| 2026-04-28 21:04 | 39.85888 | 4.22028 | 293 ft | 15 kts | 188° |
| 2026-04-28 21:04 | 39.85764 | 4.22008 | 291 ft | 19 kts | 185° |
| 2026-04-28 21:05 | 39.85625 | 4.21974 | 286 ft | 21 kts | 192° |
| 2026-04-28 21:05 | 39.85465 | 4.21940 | 278 ft | 24 kts | 189° |
| 2026-04-28 21:05 | 39.85292 | 4.21910 | 275 ft | 24 kts | 193° |
| 2026-04-28 21:05 | 39.85148 | 4.21865 | 276 ft | 17 kts | 218° |
| 2026-04-28 21:06 | 39.85137 | 4.21723 | 278 ft | 15 kts | 281° |
| 2026-04-28 21:06 | 39.85208 | 4.21650 | 279 ft | 14 kts | 8° |
| 2026-04-28 21:06 | 39.85361 | 4.21681 | 281 ft | 49 kts | 9° |
| 2026-04-28 21:06 | 39.85970 | 4.21796 | 297 ft | 122 kts | 9° |
| 2026-04-28 21:07 | 39.86971 | 4.22014 | 574 ft | 156 kts | 6° |
| 2026-04-28 21:07 | 39.88023 | 4.22227 | 1303 ft | 155 kts | 5° |
| 2026-04-28 21:07 | 39.89101 | 4.22428 | 2053 ft | 157 kts | 5° |
| 2026-04-28 21:07 | 39.90194 | 4.22653 | 2643 ft | 167 kts | 6° |
| 2026-04-28 21:08 | 39.91384 | 4.22898 | 3198 ft | 181 kts | 6° |
| 2026-04-28 21:08 | 39.92682 | 4.23172 | 3694 ft | 199 kts | 6° |
| 2026-04-28 21:08 | 39.94099 | 4.23476 | 4154 ft | 220 kts | 7° |
| 2026-04-28 21:08 | 39.95685 | 4.23815 | 4694 ft | 240 kts | 7° |
| 2026-04-28 21:09 | 39.97398 | 4.24160 | 5324 ft | 257 kts | 7° |
| 2026-04-28 21:09 | 39.99143 | 4.24655 | 6127 ft | 267 kts | 22° |
| 2026-04-28 21:09 | 40.00456 | 4.26053 | 6956 ft | 276 kts | 52° |
| 2026-04-28 21:09 | 40.01112 | 4.28409 | 7870 ft | 285 kts | 85° |
| 2026-04-28 21:10 | 40.00692 | 4.30922 | 8768 ft | 292 kts | 117° |
| 2026-04-28 21:10 | 39.99513 | 4.33045 | 9604 ft | 297 kts | 131° |
| 2026-04-28 21:10 | 39.98061 | 4.34948 | 10469 ft | 301 kts | 137° |
| 2026-04-28 21:10 | 39.96466 | 4.36774 | 11154 ft | 312 kts | 135° |
| 2026-04-28 21:11 | 39.95240 | 4.39159 | 11561 ft | 329 kts | 107° |
| 2026-04-28 21:11 | 39.95020 | 4.42169 | 11963 ft | 343 kts | 78° |
| 2026-04-28 21:11 | 39.95920 | 4.45038 | 12462 ft | 350 kts | 52° |
| 2026-04-28 21:11 | 39.97416 | 4.47536 | 13247 ft | 354 kts | 49° |
| 2026-04-28 21:12 | 39.98891 | 4.50097 | 14021 ft | 358 kts | 52° |
| 2026-04-28 21:12 | 40.00291 | 4.52812 | 14770 ft | 362 kts | 55° |
| 2026-04-28 21:12 | 40.01613 | 4.55603 | 15491 ft | 366 kts | 57° |
| 2026-04-28 21:12 | 40.02907 | 4.58480 | 16192 ft | 371 kts | 58° |
| 2026-04-28 21:13 | 40.04190 | 4.61406 | 16876 ft | 374 kts | 58° |
| 2026-04-28 21:13 | 40.05471 | 4.64350 | 17537 ft | 378 kts | 58° |
| 2026-04-28 21:13 | 40.06786 | 4.67374 | 18185 ft | 382 kts | 58° |
| 2026-04-28 21:13 | 40.08102 | 4.70347 | 18799 ft | 385 kts | 58° |
| 2026-04-28 21:14 | 40.09446 | 4.73370 | 19400 ft | 389 kts | 58° |
| 2026-04-28 21:14 | 40.10809 | 4.76436 | 19990 ft | 392 kts | 58° |
| 2026-04-28 21:14 | 40.12178 | 4.79523 | 20567 ft | 396 kts | 58° |
| 2026-04-28 21:14 | 40.13572 | 4.82672 | 21136 ft | 399 kts | 58° |
| 2026-04-28 21:15 | 40.14954 | 4.85802 | 21678 ft | 402 kts | 58° |
| 2026-04-28 21:15 | 40.16358 | 4.88983 | 22192 ft | 405 kts | 58° |
| 2026-04-28 21:15 | 40.17768 | 4.92180 | 22705 ft | 409 kts | 58° |
| 2026-04-28 21:15 | 40.19188 | 4.95404 | 23211 ft | 412 kts | 58° |
| 2026-04-28 21:16 | 40.20619 | 4.98658 | 23703 ft | 415 kts | 58° |
| 2026-04-28 21:16 | 40.22054 | 5.01926 | 24180 ft | 418 kts | 58° |
| 2026-04-28 21:16 | 40.23512 | 5.05247 | 24649 ft | 421 kts | 58° |
| 2026-04-28 21:16 | 40.24951 | 5.08533 | 25099 ft | 424 kts | 58° |
| 2026-04-28 21:17 | 40.26420 | 5.11889 | 25545 ft | 427 kts | 58° |
| 2026-04-28 21:17 | 40.27902 | 5.15278 | 25979 ft | 430 kts | 58° |
| 2026-04-28 21:17 | 40.29244 | 5.18352 | 26360 ft | 432 kts | 58° |
| 2026-04-28 21:17 | 40.30729 | 5.21757 | 26769 ft | 435 kts | 58° |
| 2026-04-28 21:18 | 40.32222 | 5.25185 | 27166 ft | 438 kts | 58° |
| 2026-04-28 21:18 | 40.33720 | 5.28630 | 27552 ft | 440 kts | 58° |
| 2026-04-28 21:18 | 40.35251 | 5.32153 | 27940 ft | 443 kts | 58° |
| 2026-04-28 21:18 | 40.36807 | 5.35641 | 28311 ft | 445 kts | 56° |
| 2026-04-28 21:19 | 40.38551 | 5.39005 | 28675 ft | 446 kts | 52° |
| 2026-04-28 21:19 | 40.40474 | 5.42165 | 29034 ft | 448 kts | 47° |
| 2026-04-28 21:19 | 40.42440 | 5.44963 | 29365 ft | 449 kts | 44° |
| 2026-04-28 21:19 | 40.44614 | 5.47895 | 29808 ft | 449 kts | 44° |
| 2026-04-28 21:20 | 40.46789 | 5.50799 | 30303 ft | 447 kts | 44° |
| 2026-04-28 21:20 | 40.48940 | 5.53672 | 30773 ft | 446 kts | 44° |
| 2026-04-28 21:20 | 40.51105 | 5.56571 | 31219 ft | 445 kts | 44° |
| 2026-04-28 21:20 | 40.53271 | 5.59480 | 31658 ft | 443 kts | 44° |
| 2026-04-28 21:21 | 40.55405 | 5.62352 | 32070 ft | 443 kts | 44° |
| 2026-04-28 21:21 | 40.57550 | 5.65245 | 32477 ft | 442 kts | 44° |
| 2026-04-28 21:21 | 40.59697 | 5.68144 | 32843 ft | 443 kts | 44° |
| 2026-04-28 21:21 | 40.61830 | 5.71027 | 33149 ft | 444 kts | 44° |
| 2026-04-28 21:22 | 40.63991 | 5.73951 | 33441 ft | 446 kts | 44° |
| 2026-04-28 21:22 | 40.66150 | 5.76876 | 33732 ft | 447 kts | 44° |
| 2026-04-28 21:22 | 40.68333 | 5.79836 | 34016 ft | 448 kts | 44° |
| 2026-04-28 21:22 | 40.69766 | 5.81781 | 34173 ft | 449 kts | 44° |
| 2026-04-28 21:23 | 40.74851 | 5.88693 | 34222 ft | 450 kts | 44° |
| 2026-04-28 21:23 | 40.79203 | 5.94624 | 34223 ft | 450 kts | 44° |
| 2026-04-28 21:24 | 40.83541 | 6.00546 | 34223 ft | 450 kts | 44° |
| 2026-04-28 21:24 | 40.87888 | 6.06492 | 34223 ft | 450 kts | 44° |
| 2026-04-28 21:25 | 40.92213 | 6.12420 | 34223 ft | 450 kts | 44° |
| 2026-04-28 21:25 | 40.96538 | 6.18359 | 34223 ft | 450 kts | 44° |
| 2026-04-28 21:26 | 41.00867 | 6.24317 | 34223 ft | 450 kts | 44° |
| 2026-04-28 21:26 | 41.05216 | 6.30315 | 34223 ft | 450 kts | 44° |
| 2026-04-28 21:27 | 41.09531 | 6.36279 | 34224 ft | 450 kts | 44° |
| 2026-04-28 21:27 | 41.13844 | 6.42254 | 34224 ft | 450 kts | 44° |
| 2026-04-28 21:28 | 41.18162 | 6.48251 | 34224 ft | 450 kts | 44° |
| 2026-04-28 21:28 | 41.22487 | 6.54266 | 34224 ft | 450 kts | 44° |
| 2026-04-28 21:29 | 41.26627 | 6.60471 | 34224 ft | 451 kts | 48° |
| 2026-04-28 21:29 | 41.30498 | 6.66687 | 34223 ft | 451 kts | 49° |
| 2026-04-28 21:30 | 41.34498 | 6.73144 | 34224 ft | 451 kts | 49° |
| 2026-04-28 21:30 | 41.38479 | 6.79575 | 34224 ft | 451 kts | 49° |
| 2026-04-28 21:31 | 41.42450 | 6.86003 | 34223 ft | 451 kts | 49° |
| 2026-04-28 21:31 | 41.46436 | 6.92465 | 34223 ft | 451 kts | 49° |
| 2026-04-28 21:32 | 41.50398 | 6.98902 | 34223 ft | 451 kts | 49° |
| 2026-04-28 21:32 | 41.54362 | 7.05356 | 34223 ft | 451 kts | 49° |
| 2026-04-28 21:33 | 41.58344 | 7.11852 | 34223 ft | 451 kts | 49° |
| 2026-04-28 21:33 | 41.62302 | 7.18325 | 34223 ft | 451 kts | 49° |
| 2026-04-28 21:34 | 41.66270 | 7.24826 | 34223 ft | 451 kts | 49° |
| 2026-04-28 21:34 | 41.70192 | 7.31267 | 34223 ft | 451 kts | 49° |
| 2026-04-28 21:35 | 41.74146 | 7.37774 | 34223 ft | 451 kts | 49° |
| 2026-04-28 21:35 | 41.78106 | 7.44306 | 34223 ft | 451 kts | 49° |
| 2026-04-28 21:36 | 41.82043 | 7.50813 | 34223 ft | 451 kts | 49° |
| 2026-04-28 21:36 | 41.85983 | 7.57340 | 34224 ft | 451 kts | 49° |
| 2026-04-28 21:37 | 41.89896 | 7.63835 | 34224 ft | 451 kts | 49° |
| 2026-04-28 21:37 | 41.93844 | 7.70404 | 34223 ft | 451 kts | 50° |
| 2026-04-28 21:38 | 41.97773 | 7.76956 | 34224 ft | 451 kts | 50° |
| 2026-04-28 21:38 | 42.01709 | 7.83532 | 34223 ft | 451 kts | 50° |
| 2026-04-28 21:39 | 42.05632 | 7.90104 | 34223 ft | 451 kts | 50° |
| 2026-04-28 21:39 | 42.09534 | 7.96654 | 34223 ft | 451 kts | 50° |
| 2026-04-28 21:40 | 42.13411 | 8.03176 | 34223 ft | 451 kts | 50° |
| 2026-04-28 21:40 | 42.17270 | 8.09685 | 34223 ft | 451 kts | 50° |
| 2026-04-28 21:41 | 42.21172 | 8.16282 | 34223 ft | 451 kts | 50° |
| 2026-04-28 21:41 | 42.25070 | 8.22892 | 34223 ft | 451 kts | 50° |
| 2026-04-28 21:42 | 42.29098 | 8.29383 | 34222 ft | 450 kts | 44° |
| 2026-04-28 21:42 | 42.33764 | 8.34966 | 34223 ft | 448 kts | 35° |
| 2026-04-28 21:43 | 42.39034 | 8.39424 | 34223 ft | 446 kts | 25° |
| 2026-04-28 21:43 | 42.44709 | 8.42807 | 34224 ft | 445 kts | 20° |
| 2026-04-28 21:44 | 42.50450 | 8.45963 | 34224 ft | 445 kts | 20° |
| 2026-04-28 21:44 | 42.56179 | 8.49129 | 34224 ft | 445 kts | 20° |
| 2026-04-28 21:45 | 42.61916 | 8.52319 | 34224 ft | 445 kts | 20° |
| 2026-04-28 21:45 | 42.67623 | 8.55504 | 34224 ft | 445 kts | 20° |
| 2026-04-28 21:46 | 42.73346 | 8.58705 | 34224 ft | 445 kts | 20° |
| 2026-04-28 21:46 | 42.79084 | 8.61923 | 34224 ft | 445 kts | 20° |
| 2026-04-28 21:47 | 42.84817 | 8.65145 | 34224 ft | 445 kts | 21° |
| 2026-04-28 21:47 | 42.90527 | 8.68359 | 34224 ft | 445 kts | 21° |
| 2026-04-28 21:48 | 42.96266 | 8.71592 | 34224 ft | 445 kts | 21° |
| 2026-04-28 21:48 | 43.01961 | 8.74810 | 34224 ft | 445 kts | 21° |
| 2026-04-28 21:49 | 43.07677 | 8.78049 | 34224 ft | 445 kts | 21° |
| 2026-04-28 21:49 | 43.13260 | 8.81220 | 34224 ft | 445 kts | 21° |
| 2026-04-28 21:50 | 43.18980 | 8.84476 | 34224 ft | 445 kts | 21° |
| 2026-04-28 21:50 | 43.24309 | 8.87517 | 34224 ft | 445 kts | 21° |
| 2026-04-28 21:51 | 43.30017 | 8.90777 | 34224 ft | 445 kts | 21° |
| 2026-04-28 21:51 | 43.35896 | 8.93526 | 34224 ft | 444 kts | 14° |
| 2026-04-28 21:52 | 43.41917 | 8.95223 | 34224 ft | 443 kts | 7° |
| 2026-04-28 21:52 | 43.48074 | 8.95865 | 34224 ft | 442 kts | 360° |
| 2026-04-28 21:53 | 43.54203 | 8.95871 | 34224 ft | 442 kts | 359° |
| 2026-04-28 21:53 | 43.60338 | 8.95898 | 34223 ft | 442 kts | 1° |
| 2026-04-28 21:54 | 43.66461 | 8.96694 | 33948 ft | 444 kts | 7° |
| 2026-04-28 21:54 | 43.69492 | 8.97446 | 33169 ft | 448 kts | 10° |
| 2026-04-28 21:54 | 43.72574 | 8.98341 | 32130 ft | 455 kts | 11° |
| 2026-04-28 21:55 | 43.75659 | 8.99266 | 31136 ft | 458 kts | 11° |
| 2026-04-28 21:55 | 43.78738 | 9.00169 | 30264 ft | 458 kts | 9° |
| 2026-04-28 21:55 | 43.81897 | 9.00887 | 29422 ft | 457 kts | 6° |
| 2026-04-28 21:55 | 43.85051 | 9.01367 | 28647 ft | 453 kts | 4° |
| 2026-04-28 21:56 | 43.88153 | 9.01756 | 28165 ft | 444 kts | 4° |
| 2026-04-28 21:56 | 43.91182 | 9.02117 | 27680 ft | 436 kts | 4° |
| 2026-04-28 21:56 | 43.94159 | 9.02472 | 27187 ft | 429 kts | 4° |
| 2026-04-28 21:56 | 43.97112 | 9.02822 | 26692 ft | 421 kts | 4° |
| 2026-04-28 21:57 | 44.00006 | 9.03162 | 26200 ft | 416 kts | 4° |
| 2026-04-28 21:57 | 44.02875 | 9.03500 | 25704 ft | 412 kts | 4° |
| 2026-04-28 21:57 | 44.05715 | 9.03835 | 25207 ft | 408 kts | 4° |
| 2026-04-28 21:57 | 44.08536 | 9.04170 | 24710 ft | 404 kts | 4° |
| 2026-04-28 21:58 | 44.11303 | 9.04500 | 24218 ft | 400 kts | 4° |
| 2026-04-28 21:58 | 44.14100 | 9.04834 | 23721 ft | 396 kts | 4° |
| 2026-04-28 21:58 | 44.16820 | 9.05157 | 23237 ft | 393 kts | 4° |
| 2026-04-28 21:58 | 44.19552 | 9.05481 | 22749 ft | 389 kts | 4° |
| 2026-04-28 21:59 | 44.22214 | 9.05796 | 22247 ft | 386 kts | 3° |
| 2026-04-28 21:59 | 44.24686 | 9.06090 | 21783 ft | 384 kts | 3° |
| 2026-04-28 21:59 | 44.27203 | 9.06391 | 21319 ft | 380 kts | 3° |
| 2026-04-28 22:00 | 44.32442 | 9.07018 | 20358 ft | 375 kts | 3° |
| 2026-04-28 22:00 | 44.35051 | 9.07330 | 19880 ft | 372 kts | 3° |
| 2026-04-28 22:00 | 44.37605 | 9.07636 | 19410 ft | 369 kts | 3° |
| 2026-04-28 22:00 | 44.40140 | 9.07942 | 18941 ft | 367 kts | 4° |
| 2026-04-28 22:01 | 44.42677 | 9.08380 | 18470 ft | 365 kts | 7° |
| 2026-04-28 22:01 | 44.45166 | 9.09027 | 17957 ft | 364 kts | 10° |
| 2026-04-28 22:01 | 44.47660 | 9.09773 | 17499 ft | 361 kts | 11° |
| 2026-04-28 22:01 | 44.50104 | 9.10522 | 17058 ft | 359 kts | 11° |
| 2026-04-28 22:02 | 44.52578 | 9.11281 | 16593 ft | 357 kts | 11° |
| 2026-04-28 22:02 | 44.54993 | 9.12022 | 16137 ft | 355 kts | 11° |
| 2026-04-28 22:02 | 44.57376 | 9.12753 | 15943 ft | 348 kts | 11° |
| 2026-04-28 22:02 | 44.59725 | 9.13472 | 15781 ft | 345 kts | 11° |
| 2026-04-28 22:03 | 44.62090 | 9.14197 | 15614 ft | 344 kts | 11° |
| 2026-04-28 22:03 | 44.64399 | 9.14904 | 15457 ft | 343 kts | 10° |
| 2026-04-28 22:03 | 44.66736 | 9.15620 | 15310 ft | 341 kts | 10° |
| 2026-04-28 22:03 | 44.69030 | 9.16324 | 15117 ft | 331 kts | 10° |
| 2026-04-28 22:04 | 44.71217 | 9.16997 | 15024 ft | 315 kts | 10° |
| 2026-04-28 22:04 | 44.73319 | 9.17643 | 14757 ft | 308 kts | 11° |
| 2026-04-28 22:04 | 44.75413 | 9.18289 | 14468 ft | 303 kts | 10° |
| 2026-04-28 22:04 | 44.77417 | 9.18907 | 14094 ft | 292 kts | 10° |
| 2026-04-28 22:05 | 44.79375 | 9.19515 | 13600 ft | 283 kts | 12° |
| 2026-04-28 22:05 | 44.81137 | 9.20655 | 13241 ft | 283 kts | 39° |
| 2026-04-28 22:05 | 44.82237 | 9.22951 | 13065 ft | 281 kts | 70° |
| 2026-04-28 22:05 | 44.82527 | 9.25653 | 13101 ft | 284 kts | 84° |
| 2026-04-28 22:06 | 44.82642 | 9.28425 | 13126 ft | 284 kts | 84° |
| 2026-04-28 22:06 | 44.82766 | 9.31207 | 13152 ft | 284 kts | 84° |
| 2026-04-28 22:06 | 44.82903 | 9.33975 | 13178 ft | 284 kts | 83° |
| 2026-04-28 22:06 | 44.83049 | 9.36762 | 13198 ft | 284 kts | 83° |
| 2026-04-28 22:07 | 44.83195 | 9.39527 | 13207 ft | 284 kts | 83° |
| 2026-04-28 22:07 | 44.83342 | 9.42280 | 13210 ft | 284 kts | 83° |
| 2026-04-28 22:07 | 44.83488 | 9.45061 | 13212 ft | 284 kts | 83° |
| 2026-04-28 22:07 | 44.83737 | 9.47813 | 13207 ft | 282 kts | 73° |
| 2026-04-28 22:08 | 44.84444 | 9.50380 | 12935 ft | 281 kts | 59° |
| 2026-04-28 22:08 | 44.85433 | 9.52753 | 12581 ft | 280 kts | 56° |
| 2026-04-28 22:08 | 44.86451 | 9.55069 | 12256 ft | 278 kts | 55° |
| 2026-04-28 22:08 | 44.87448 | 9.57355 | 11968 ft | 274 kts | 56° |
| 2026-04-28 22:09 | 44.88421 | 9.59608 | 11889 ft | 262 kts | 54° |
| 2026-04-28 22:09 | 44.89634 | 9.61396 | 11771 ft | 245 kts | 23° |
| 2026-04-28 22:09 | 44.91162 | 9.61887 | 11509 ft | 238 kts | 354° |
| 2026-04-28 22:09 | 44.92800 | 9.61638 | 11239 ft | 235 kts | 352° |
| 2026-04-28 22:10 | 44.94425 | 9.61409 | 10964 ft | 233 kts | 353° |
| 2026-04-28 22:10 | 44.96032 | 9.61216 | 10700 ft | 230 kts | 353° |
| 2026-04-28 22:10 | 44.97567 | 9.60788 | 10400 ft | 227 kts | 331° |
| 2026-04-28 22:10 | 44.98724 | 9.59323 | 10120 ft | 224 kts | 301° |
| 2026-04-28 22:11 | 44.99184 | 9.57232 | 9832 ft | 225 kts | 272° |
| 2026-04-28 22:11 | 44.99088 | 9.55070 | 9598 ft | 222 kts | 267° |
| 2026-04-28 22:11 | 44.98956 | 9.52902 | 9346 ft | 221 kts | 267° |
| 2026-04-28 22:11 | 44.98831 | 9.50750 | 9097 ft | 219 kts | 268° |
| 2026-04-28 22:12 | 44.98713 | 9.48621 | 8852 ft | 217 kts | 268° |
| 2026-04-28 22:12 | 44.98599 | 9.46490 | 8606 ft | 215 kts | 268° |
| 2026-04-28 22:12 | 44.98488 | 9.44406 | 8354 ft | 214 kts | 268° |
| 2026-04-28 22:12 | 44.98376 | 9.42319 | 8108 ft | 213 kts | 268° |
| 2026-04-28 22:13 | 44.98267 | 9.40258 | 7870 ft | 211 kts | 268° |
| 2026-04-28 22:13 | 44.98155 | 9.38185 | 7632 ft | 210 kts | 268° |
| 2026-04-28 22:13 | 44.98056 | 9.36115 | 7389 ft | 208 kts | 273° |
| 2026-04-28 22:13 | 44.98422 | 9.34188 | 7112 ft | 203 kts | 305° |
| 2026-04-28 22:14 | 44.99452 | 9.32873 | 6930 ft | 206 kts | 332° |
| 2026-04-28 22:14 | 45.00856 | 9.32399 | 6639 ft | 209 kts | 353° |
| 2026-04-28 22:14 | 45.02323 | 9.32254 | 6387 ft | 208 kts | 354° |
| 2026-04-28 22:14 | 45.03762 | 9.32109 | 6131 ft | 207 kts | 353° |
| 2026-04-28 22:15 | 45.05194 | 9.31947 | 5885 ft | 206 kts | 353° |
| 2026-04-28 22:15 | 45.06614 | 9.31785 | 5643 ft | 206 kts | 353° |
| 2026-04-28 22:15 | 45.08039 | 9.31625 | 5401 ft | 205 kts | 353° |
| 2026-04-28 22:15 | 45.09477 | 9.31466 | 5158 ft | 204 kts | 353° |
| 2026-04-28 22:16 | 45.10889 | 9.31313 | 4918 ft | 203 kts | 353° |
| 2026-04-28 22:16 | 45.12307 | 9.31161 | 4675 ft | 203 kts | 353° |
| 2026-04-28 22:16 | 45.13739 | 9.31010 | 4430 ft | 202 kts | 353° |
| 2026-04-28 22:16 | 45.15125 | 9.30866 | 4192 ft | 201 kts | 353° |
| 2026-04-28 22:17 | 45.16534 | 9.30719 | 3950 ft | 200 kts | 353° |
| 2026-04-28 22:17 | 45.17921 | 9.30572 | 3711 ft | 200 kts | 353° |
| 2026-04-28 22:17 | 45.19280 | 9.30427 | 3430 ft | 193 kts | 353° |
| 2026-04-28 22:17 | 45.20585 | 9.30288 | 3194 ft | 179 kts | 353° |
| 2026-04-28 22:18 | 45.21796 | 9.30160 | 3128 ft | 166 kts | 353° |
| 2026-04-28 22:18 | 45.22881 | 9.30045 | 3102 ft | 148 kts | 353° |
| 2026-04-28 22:18 | 45.23865 | 9.29940 | 3102 ft | 139 kts | 352° |
| 2026-04-28 22:18 | 45.24849 | 9.29832 | 3120 ft | 139 kts | 352° |
| 2026-04-28 22:19 | 45.25807 | 9.29727 | 3127 ft | 139 kts | 352° |
| 2026-04-28 22:19 | 45.26777 | 9.29622 | 3131 ft | 139 kts | 352° |
| 2026-04-28 22:19 | 45.27712 | 9.29520 | 3132 ft | 139 kts | 352° |
| 2026-04-28 22:19 | 45.28672 | 9.29416 | 3165 ft | 136 kts | 352° |
| 2026-04-28 22:20 | 45.29599 | 9.29315 | 3038 ft | 134 kts | 352° |
| 2026-04-28 22:20 | 45.30541 | 9.29214 | 2853 ft | 133 kts | 352° |
| 2026-04-28 22:20 | 45.31458 | 9.29116 | 2676 ft | 133 kts | 352° |
| 2026-04-28 22:20 | 45.32381 | 9.29017 | 2500 ft | 133 kts | 352° |
| 2026-04-28 22:21 | 45.33303 | 9.28918 | 2322 ft | 132 kts | 352° |
| 2026-04-28 22:21 | 45.34229 | 9.28818 | 2144 ft | 132 kts | 352° |
| 2026-04-28 22:21 | 45.35144 | 9.28720 | 1969 ft | 131 kts | 352° |
| 2026-04-28 22:21 | 45.36058 | 9.28621 | 1794 ft | 131 kts | 352° |
| 2026-04-28 22:22 | 45.36972 | 9.28523 | 1619 ft | 131 kts | 352° |
| 2026-04-28 22:22 | 45.37877 | 9.28426 | 1445 ft | 130 kts | 352° |
| 2026-04-28 22:22 | 45.38797 | 9.28327 | 1269 ft | 130 kts | 352° |
| 2026-04-28 22:22 | 45.39698 | 9.28229 | 1101 ft | 130 kts | 352° |
| 2026-04-28 22:23 | 45.40593 | 9.28130 | 924 ft | 129 kts | 352° |
| 2026-04-28 22:23 | 45.41494 | 9.28040 | 753 ft | 129 kts | 353° |
| 2026-04-28 22:23 | 45.42385 | 9.27937 | 576 ft | 127 kts | 351° |
| 2026-04-28 22:23 | 45.43245 | 9.27835 | 420 ft | 122 kts | 352° |
| 2026-04-28 22:24 | 45.44068 | 9.27734 | 350 ft | 108 kts | 352° |
| 2026-04-28 22:24 | 45.44650 | 9.27690 | 355 ft | 59 kts | 357° |
| 2026-04-28 22:24 | 45.44942 | 9.27658 | 357 ft | 38 kts | 354° |
| 2026-04-28 22:24 | 45.45162 | 9.27630 | 358 ft | 26 kts | 355° |
| 2026-04-28 22:25 | 45.45324 | 9.27668 | 359 ft | 18 kts | 26° |
| 2026-04-28 22:25 | 45.45419 | 9.27735 | 360 ft | 13 kts | 38° |
| 2026-04-28 22:25 | 45.45493 | 9.27811 | 361 ft | 13 kts | 11° |
| 2026-04-28 22:25 | 45.45587 | 9.27816 | 361 ft | 11 kts | 360° |
| 2026-04-28 22:26 | 45.45653 | 9.27816 | 361 ft | 6 kts | 4° |
| 2026-04-28 22:26 | 45.45699 | 9.27819 | 362 ft | 3 kts | 8° |
| 2026-04-28 22:26 | 45.45724 | 9.27817 | 362 ft | 4 kts | 1° |
| 2026-04-28 22:26 | 45.45756 | 9.27818 | 362 ft | 5 kts | 1° |
| 2026-04-28 22:27 | 45.45796 | 9.27819 | 362 ft | 6 kts | 360° |
| 2026-04-28 22:27 | 45.45838 | 9.27826 | 363 ft | 6 kts | 34° |
| 2026-04-28 22:27 | 45.45853 | 9.27868 | 363 ft | 3 kts | 79° |
| 2026-04-28 22:27 | 45.45855 | 9.27889 | 363 ft | 2 kts | 89° |
| 2026-04-28 22:28 | 45.45855 | 9.27902 | 363 ft | 0 kts | 89° |